GER6KE EDDB-EDDM
Flight info
| Callsign | GER6KE |
|---|---|
| Flight time | 0h 47m |
| Altitude | 28000 |
| Route | LUROS3Q LUROS Y211 BEBKU Z36 MAREM DCT VESUB T106 TUSTO T108 LANDU LANDU2A |
| Aircraft | E190/M-SDE3GILORVW/S |
Departure
| Time | 2026-05-07 21:11 |
|---|---|
| Airport | Berlin Brandenburg Airport (EDDB) |
Arrival
| Time | 2026-05-07 21:58 |
|---|---|
| Airport | Munich Airport (EDDM) |
| Time | Latitude | Longitude | Altitude | Speed | Heading |
|---|---|---|---|---|---|
| 2026-05-07 20:44 | 52.36430 | 13.50562 | 153 ft | 0 kts | 69° |
| 2026-05-07 20:59 | 52.36423 | 13.50534 | 153 ft | 4 kts | 62° |
| 2026-05-07 20:59 | 52.36409 | 13.50497 | 153 ft | 4 kts | 54° |
| 2026-05-07 20:59 | 52.36393 | 13.50461 | 153 ft | 4 kts | 58° |
| 2026-05-07 21:00 | 52.36384 | 13.50429 | 153 ft | 4 kts | 72° |
| 2026-05-07 21:00 | 52.36380 | 13.50388 | 153 ft | 4 kts | 104° |
| 2026-05-07 21:00 | 52.36391 | 13.50354 | 153 ft | 3 kts | 155° |
| 2026-05-07 21:00 | 52.36394 | 13.50351 | 153 ft | 3 kts | 159° |
| 2026-05-07 21:02 | 52.36375 | 13.50364 | 153 ft | 8 kts | 159° |
| 2026-05-07 21:03 | 52.36307 | 13.50406 | 153 ft | 13 kts | 159° |
| 2026-05-07 21:03 | 52.36206 | 13.50469 | 153 ft | 17 kts | 160° |
| 2026-05-07 21:03 | 52.36087 | 13.50544 | 153 ft | 19 kts | 159° |
| 2026-05-07 21:03 | 52.35987 | 13.50609 | 153 ft | 18 kts | 159° |
| 2026-05-07 21:04 | 52.35921 | 13.50651 | 153 ft | 6 kts | 155° |
| 2026-05-07 21:04 | 52.35899 | 13.50654 | 153 ft | 6 kts | 190° |
| 2026-05-07 21:04 | 52.35833 | 13.50633 | 153 ft | 12 kts | 178° |
| 2026-05-07 21:04 | 52.35761 | 13.50569 | 155 ft | 15 kts | 247° |
| 2026-05-07 21:05 | 52.35720 | 13.50398 | 153 ft | 17 kts | 249° |
| 2026-05-07 21:05 | 52.35675 | 13.50209 | 153 ft | 19 kts | 248° |
| 2026-05-07 21:05 | 52.35626 | 13.50003 | 153 ft | 20 kts | 247° |
| 2026-05-07 21:05 | 52.35573 | 13.49782 | 153 ft | 21 kts | 249° |
| 2026-05-07 21:06 | 52.35518 | 13.49547 | 153 ft | 23 kts | 249° |
| 2026-05-07 21:06 | 52.35459 | 13.49300 | 153 ft | 24 kts | 249° |
| 2026-05-07 21:06 | 52.35397 | 13.49040 | 153 ft | 25 kts | 249° |
| 2026-05-07 21:06 | 52.35338 | 13.48790 | 153 ft | 24 kts | 248° |
| 2026-05-07 21:07 | 52.35282 | 13.48554 | 153 ft | 15 kts | 249° |
| 2026-05-07 21:07 | 52.35213 | 13.48479 | 153 ft | 10 kts | 160° |
| 2026-05-07 21:07 | 52.35139 | 13.48530 | 153 ft | 13 kts | 157° |
| 2026-05-07 21:07 | 52.35100 | 13.48642 | 153 ft | 11 kts | 99° |
| 2026-05-07 21:08 | 52.35085 | 13.48776 | 153 ft | 12 kts | 101° |
| 2026-05-07 21:08 | 52.35072 | 13.48927 | 153 ft | 15 kts | 98° |
| 2026-05-07 21:08 | 52.35066 | 13.49044 | 153 ft | 0 kts | 67° |
| 2026-05-07 21:10 | 52.35069 | 13.49058 | 153 ft | 7 kts | 68° |
| 2026-05-07 21:10 | 52.35175 | 13.49507 | 153 ft | 82 kts | 68° |
| 2026-05-07 21:10 | 52.35469 | 13.50743 | 157 ft | 151 kts | 68° |
| 2026-05-07 21:11 | 52.35900 | 13.52512 | 680 ft | 177 kts | 67° |
| 2026-05-07 21:11 | 52.36155 | 13.54480 | 1513 ft | 180 kts | 95° |
| 2026-05-07 21:11 | 52.34271 | 13.56978 | 2806 ft | 201 kts | 176° |
| 2026-05-07 21:12 | 52.32892 | 13.56310 | 3266 ft | 218 kts | 211° |
| 2026-05-07 21:12 | 52.31595 | 13.55004 | 3828 ft | 222 kts | 196° |
| 2026-05-07 21:12 | 52.30011 | 13.54857 | 4178 ft | 237 kts | 174° |
| 2026-05-07 21:12 | 52.28356 | 13.55113 | 4873 ft | 244 kts | 173° |
| 2026-05-07 21:13 | 52.26591 | 13.55205 | 5322 ft | 262 kts | 179° |
| 2026-05-07 21:13 | 52.24728 | 13.55235 | 5941 ft | 270 kts | 177° |
| 2026-05-07 21:13 | 52.22834 | 13.55321 | 6713 ft | 273 kts | 177° |
| 2026-05-07 21:13 | 52.20921 | 13.55416 | 7428 ft | 276 kts | 177° |
| 2026-05-07 21:14 | 52.18986 | 13.55517 | 8118 ft | 280 kts | 177° |
| 2026-05-07 21:14 | 52.17029 | 13.55615 | 8807 ft | 282 kts | 177° |
| 2026-05-07 21:14 | 52.15078 | 13.55715 | 9514 ft | 286 kts | 178° |
| 2026-05-07 21:14 | 52.13050 | 13.55818 | 10179 ft | 293 kts | 178° |
| 2026-05-07 21:15 | 52.10948 | 13.55926 | 10401 ft | 314 kts | 178° |
| 2026-05-07 21:15 | 52.08737 | 13.56039 | 10678 ft | 330 kts | 178° |
| 2026-05-07 21:15 | 52.06428 | 13.56156 | 11119 ft | 338 kts | 178° |
| 2026-05-07 21:15 | 52.04066 | 13.56280 | 11737 ft | 342 kts | 178° |
| 2026-05-07 21:16 | 52.01680 | 13.56400 | 12332 ft | 345 kts | 178° |
| 2026-05-07 21:16 | 51.99263 | 13.56527 | 12939 ft | 348 kts | 178° |
| 2026-05-07 21:16 | 51.96829 | 13.56647 | 13580 ft | 351 kts | 178° |
| 2026-05-07 21:16 | 51.94380 | 13.56773 | 14172 ft | 354 kts | 178° |
| 2026-05-07 21:17 | 51.91994 | 13.56897 | 14690 ft | 357 kts | 178° |
| 2026-05-07 21:17 | 51.89498 | 13.56962 | 15214 ft | 361 kts | 182° |
| 2026-05-07 21:17 | 51.86978 | 13.56968 | 15742 ft | 364 kts | 176° |
| 2026-05-07 21:17 | 51.84439 | 13.57265 | 16261 ft | 367 kts | 178° |
| 2026-05-07 21:18 | 51.81878 | 13.57403 | 16799 ft | 371 kts | 178° |
| 2026-05-07 21:18 | 51.79287 | 13.57545 | 17335 ft | 374 kts | 179° |
| 2026-05-07 21:18 | 51.76672 | 13.57673 | 17878 ft | 377 kts | 178° |
| 2026-05-07 21:18 | 51.74035 | 13.57801 | 18417 ft | 381 kts | 179° |
| 2026-05-07 21:19 | 51.71376 | 13.57935 | 18933 ft | 383 kts | 178° |
| 2026-05-07 21:19 | 51.68699 | 13.58066 | 19419 ft | 387 kts | 178° |
| 2026-05-07 21:19 | 51.66000 | 13.58203 | 19898 ft | 390 kts | 178° |
| 2026-05-07 21:19 | 51.63276 | 13.58340 | 20374 ft | 394 kts | 178° |
| 2026-05-07 21:20 | 51.60525 | 13.58477 | 20829 ft | 397 kts | 178° |
| 2026-05-07 21:20 | 51.57748 | 13.58619 | 21257 ft | 401 kts | 178° |
| 2026-05-07 21:20 | 51.54948 | 13.58758 | 21677 ft | 404 kts | 178° |
| 2026-05-07 21:20 | 51.52166 | 13.58899 | 22124 ft | 406 kts | 178° |
| 2026-05-07 21:21 | 51.49339 | 13.59040 | 22573 ft | 408 kts | 178° |
| 2026-05-07 21:21 | 51.46494 | 13.59183 | 22969 ft | 411 kts | 178° |
| 2026-05-07 21:21 | 51.43626 | 13.59329 | 23384 ft | 414 kts | 178° |
| 2026-05-07 21:21 | 51.40756 | 13.59471 | 23768 ft | 417 kts | 178° |
| 2026-05-07 21:22 | 51.37850 | 13.59617 | 24119 ft | 420 kts | 178° |
| 2026-05-07 21:22 | 51.34915 | 13.59763 | 24477 ft | 422 kts | 178° |
| 2026-05-07 21:22 | 51.31972 | 13.59909 | 24825 ft | 424 kts | 178° |
| 2026-05-07 21:22 | 51.29017 | 13.60058 | 25146 ft | 426 kts | 178° |
| 2026-05-07 21:23 | 51.26043 | 13.60204 | 25475 ft | 428 kts | 178° |
| 2026-05-07 21:23 | 51.23082 | 13.60354 | 25756 ft | 431 kts | 179° |
| 2026-05-07 21:23 | 51.20156 | 13.60496 | 26036 ft | 433 kts | 179° |
| 2026-05-07 21:23 | 51.17135 | 13.60648 | 26318 ft | 435 kts | 179° |
| 2026-05-07 21:24 | 51.14102 | 13.60797 | 26588 ft | 437 kts | 179° |
| 2026-05-07 21:24 | 51.11054 | 13.60947 | 26850 ft | 439 kts | 179° |
| 2026-05-07 21:24 | 51.07999 | 13.61099 | 27099 ft | 440 kts | 179° |
| 2026-05-07 21:24 | 51.04930 | 13.61248 | 27341 ft | 442 kts | 179° |
| 2026-05-07 21:25 | 51.01850 | 13.61402 | 27566 ft | 444 kts | 179° |
| 2026-05-07 21:25 | 50.98795 | 13.61554 | 27754 ft | 446 kts | 179° |
| 2026-05-07 21:25 | 50.95698 | 13.61703 | 27951 ft | 436 kts | 179° |
| 2026-05-07 21:25 | 50.92746 | 13.61850 | 28017 ft | 419 kts | 179° |
| 2026-05-07 21:26 | 50.87056 | 13.62127 | 28079 ft | 422 kts | 179° |
| 2026-05-07 21:26 | 50.81150 | 13.62414 | 28084 ft | 419 kts | 179° |
| 2026-05-07 21:27 | 50.75305 | 13.62704 | 28068 ft | 421 kts | 180° |
| 2026-05-07 21:27 | 50.70457 | 13.62418 | 28076 ft | 418 kts | 192° |
| 2026-05-07 21:28 | 50.64129 | 13.59221 | 28074 ft | 415 kts | 202° |
| 2026-05-07 21:28 | 50.58626 | 13.56419 | 28065 ft | 416 kts | 200° |
| 2026-05-07 21:29 | 50.53144 | 13.53695 | 28061 ft | 414 kts | 200° |
| 2026-05-07 21:29 | 50.47653 | 13.50969 | 28069 ft | 414 kts | 200° |
| 2026-05-07 21:30 | 50.42228 | 13.48284 | 28067 ft | 414 kts | 200° |
| 2026-05-07 21:30 | 50.36731 | 13.45569 | 28065 ft | 414 kts | 200° |
| 2026-05-07 21:31 | 50.31236 | 13.42860 | 28074 ft | 414 kts | 200° |
| 2026-05-07 21:31 | 50.25740 | 13.40157 | 28062 ft | 414 kts | 200° |
| 2026-05-07 21:32 | 50.20241 | 13.37462 | 28053 ft | 414 kts | 200° |
| 2026-05-07 21:32 | 50.14935 | 13.34865 | 28061 ft | 414 kts | 200° |
| 2026-05-07 21:33 | 50.09437 | 13.32182 | 28044 ft | 411 kts | 200° |
| 2026-05-07 21:33 | 50.04036 | 13.29550 | 28066 ft | 411 kts | 200° |
| 2026-05-07 21:34 | 49.98732 | 13.26974 | 28053 ft | 411 kts | 200° |
| 2026-05-07 21:34 | 49.94201 | 13.24777 | 28067 ft | 411 kts | 200° |
| 2026-05-07 21:35 | 49.87880 | 13.21719 | 28047 ft | 408 kts | 200° |
| 2026-05-07 21:35 | 49.83382 | 13.19547 | 28078 ft | 407 kts | 200° |
| 2026-05-07 21:36 | 49.78140 | 13.17023 | 28076 ft | 407 kts | 200° |
| 2026-05-07 21:36 | 49.72730 | 13.14426 | 28074 ft | 407 kts | 200° |
| 2026-05-07 21:37 | 49.67324 | 13.11835 | 28049 ft | 407 kts | 200° |
| 2026-05-07 21:37 | 49.61931 | 13.09257 | 28060 ft | 405 kts | 200° |
| 2026-05-07 21:38 | 49.59236 | 13.07968 | 27693 ft | 407 kts | 200° |
| 2026-05-07 21:38 | 49.56535 | 13.06682 | 27024 ft | 410 kts | 200° |
| 2026-05-07 21:38 | 49.53750 | 13.05352 | 26393 ft | 424 kts | 200° |
| 2026-05-07 21:38 | 49.50986 | 13.04041 | 25779 ft | 422 kts | 200° |
| 2026-05-07 21:39 | 49.48196 | 13.02717 | 25170 ft | 417 kts | 200° |
| 2026-05-07 21:39 | 49.45498 | 13.01430 | 24562 ft | 413 kts | 200° |
| 2026-05-07 21:39 | 49.42784 | 13.00051 | 23968 ft | 407 kts | 201° |
| 2026-05-07 21:39 | 49.40188 | 12.98410 | 23338 ft | 402 kts | 207° |
| 2026-05-07 21:40 | 49.37659 | 12.96621 | 22636 ft | 398 kts | 207° |
| 2026-05-07 21:40 | 49.35171 | 12.94814 | 21984 ft | 394 kts | 208° |
| 2026-05-07 21:40 | 49.32709 | 12.93024 | 21325 ft | 390 kts | 208° |
| 2026-05-07 21:40 | 49.30271 | 12.91246 | 20750 ft | 385 kts | 208° |
| 2026-05-07 21:41 | 49.27858 | 12.89491 | 20227 ft | 383 kts | 208° |
| 2026-05-07 21:41 | 49.25451 | 12.87750 | 19710 ft | 381 kts | 208° |
| 2026-05-07 21:41 | 49.23074 | 12.86023 | 19204 ft | 375 kts | 208° |
| 2026-05-07 21:41 | 49.20730 | 12.84319 | 18705 ft | 372 kts | 208° |
| 2026-05-07 21:42 | 49.18400 | 12.82626 | 18329 ft | 370 kts | 208° |
| 2026-05-07 21:42 | 49.16170 | 12.80708 | 17934 ft | 366 kts | 216° |
| 2026-05-07 21:42 | 49.14065 | 12.78537 | 17530 ft | 365 kts | 216° |
| 2026-05-07 21:42 | 49.11911 | 12.76503 | 17147 ft | 363 kts | 214° |
| 2026-05-07 21:43 | 49.09767 | 12.74486 | 16766 ft | 361 kts | 214° |
| 2026-05-07 21:43 | 49.07631 | 12.72500 | 16381 ft | 359 kts | 214° |
| 2026-05-07 21:43 | 49.05503 | 12.70524 | 15997 ft | 357 kts | 214° |
| 2026-05-07 21:43 | 49.03389 | 12.68558 | 15602 ft | 354 kts | 214° |
| 2026-05-07 21:44 | 49.01294 | 12.66617 | 15196 ft | 352 kts | 214° |
| 2026-05-07 21:44 | 48.99235 | 12.64703 | 14671 ft | 350 kts | 214° |
| 2026-05-07 21:44 | 48.97141 | 12.62764 | 14138 ft | 346 kts | 214° |
| 2026-05-07 21:44 | 48.95088 | 12.60862 | 13567 ft | 344 kts | 213° |
| 2026-05-07 21:45 | 48.93083 | 12.59010 | 12985 ft | 340 kts | 213° |
| 2026-05-07 21:45 | 48.91070 | 12.57149 | 12425 ft | 337 kts | 213° |
| 2026-05-07 21:45 | 48.89079 | 12.55309 | 11858 ft | 333 kts | 214° |
| 2026-05-07 21:45 | 48.87109 | 12.53493 | 11311 ft | 329 kts | 213° |
| 2026-05-07 21:46 | 48.85175 | 12.51710 | 10754 ft | 321 kts | 214° |
| 2026-05-07 21:46 | 48.83280 | 12.49968 | 10206 ft | 315 kts | 214° |
| 2026-05-07 21:46 | 48.81445 | 12.48282 | 9935 ft | 301 kts | 214° |
| 2026-05-07 21:46 | 48.79697 | 12.46671 | 9648 ft | 289 kts | 214° |
| 2026-05-07 21:47 | 48.78011 | 12.45119 | 9356 ft | 279 kts | 214° |
| 2026-05-07 21:47 | 48.76367 | 12.43610 | 8927 ft | 275 kts | 214° |
| 2026-05-07 21:47 | 48.74739 | 12.42116 | 8457 ft | 273 kts | 214° |
| 2026-05-07 21:47 | 48.73121 | 12.40633 | 8010 ft | 271 kts | 214° |
| 2026-05-07 21:48 | 48.71513 | 12.39161 | 7570 ft | 269 kts | 214° |
| 2026-05-07 21:48 | 48.69915 | 12.37699 | 7199 ft | 267 kts | 214° |
| 2026-05-07 21:48 | 48.68328 | 12.36252 | 6955 ft | 263 kts | 214° |
| 2026-05-07 21:48 | 48.66786 | 12.34841 | 6707 ft | 255 kts | 214° |
| 2026-05-07 21:49 | 48.65284 | 12.33471 | 6456 ft | 249 kts | 214° |
| 2026-05-07 21:49 | 48.63818 | 12.32127 | 6178 ft | 244 kts | 214° |
| 2026-05-07 21:49 | 48.62384 | 12.30778 | 5908 ft | 241 kts | 214° |
| 2026-05-07 21:49 | 48.60962 | 12.29481 | 5631 ft | 238 kts | 206° |
| 2026-05-07 21:50 | 48.59477 | 12.28745 | 5375 ft | 235 kts | 197° |
| 2026-05-07 21:50 | 48.57854 | 12.28135 | 5126 ft | 231 kts | 195° |
| 2026-05-07 21:50 | 48.56318 | 12.27597 | 5031 ft | 221 kts | 198° |
| 2026-05-07 21:50 | 48.54949 | 12.26666 | 4978 ft | 213 kts | 211° |
| 2026-05-07 21:51 | 48.53705 | 12.25572 | 4971 ft | 207 kts | 213° |
| 2026-05-07 21:51 | 48.52476 | 12.24432 | 4974 ft | 208 kts | 214° |
| 2026-05-07 21:51 | 48.51251 | 12.23268 | 4987 ft | 208 kts | 214° |
| 2026-05-07 21:51 | 48.50025 | 12.22095 | 4993 ft | 209 kts | 214° |
| 2026-05-07 21:52 | 48.48801 | 12.20916 | 4993 ft | 208 kts | 214° |
| 2026-05-07 21:52 | 48.47579 | 12.19739 | 4983 ft | 208 kts | 214° |
| 2026-05-07 21:52 | 48.46355 | 12.18558 | 4992 ft | 208 kts | 214° |
| 2026-05-07 21:52 | 48.45133 | 12.17381 | 4990 ft | 208 kts | 214° |
| 2026-05-07 21:53 | 48.43910 | 12.16203 | 4989 ft | 209 kts | 214° |
| 2026-05-07 21:53 | 48.42689 | 12.15017 | 4989 ft | 209 kts | 214° |
| 2026-05-07 21:53 | 48.41488 | 12.13831 | 4996 ft | 209 kts | 214° |
| 2026-05-07 21:53 | 48.40268 | 12.12623 | 4997 ft | 210 kts | 214° |
| 2026-05-07 21:54 | 48.39193 | 12.11176 | 4977 ft | 209 kts | 238° |
| 2026-05-07 21:54 | 48.38713 | 12.09128 | 4968 ft | 210 kts | 261° |
| 2026-05-07 21:54 | 48.38574 | 12.06899 | 4626 ft | 215 kts | 264° |
| 2026-05-07 21:54 | 48.38383 | 12.04673 | 4362 ft | 214 kts | 261° |
| 2026-05-07 21:55 | 48.38198 | 12.02465 | 4144 ft | 210 kts | 263° |
| 2026-05-07 21:55 | 48.38054 | 12.00339 | 3949 ft | 199 kts | 263° |
| 2026-05-07 21:55 | 48.37899 | 11.98298 | 3667 ft | 194 kts | 263° |
| 2026-05-07 21:55 | 48.37749 | 11.96299 | 3389 ft | 190 kts | 263° |
| 2026-05-07 21:56 | 48.37605 | 11.94355 | 3150 ft | 180 kts | 263° |
| 2026-05-07 21:56 | 48.37472 | 11.92575 | 2914 ft | 164 kts | 264° |
| 2026-05-07 21:56 | 48.37349 | 11.90934 | 2668 ft | 153 kts | 264° |
| 2026-05-07 21:56 | 48.37233 | 11.89388 | 2440 ft | 146 kts | 264° |
| 2026-05-07 21:57 | 48.37123 | 11.87898 | 2249 ft | 141 kts | 264° |
| 2026-05-07 21:57 | 48.37023 | 11.86447 | 2074 ft | 139 kts | 263° |
| 2026-05-07 21:57 | 48.36907 | 11.85015 | 1885 ft | 137 kts | 263° |
| 2026-05-07 21:57 | 48.36803 | 11.83589 | 1715 ft | 137 kts | 263° |
| 2026-05-07 21:58 | 48.36691 | 11.82165 | 1538 ft | 136 kts | 263° |
| 2026-05-07 21:58 | 48.36589 | 11.80843 | 1484 ft | 113 kts | 263° |
| 2026-05-07 21:58 | 48.36515 | 11.79880 | 1484 ft | 64 kts | 262° |
| 2026-05-07 21:58 | 48.36476 | 11.79376 | 1484 ft | 45 kts | 264° |
| 2026-05-07 21:59 | 48.36426 | 11.78999 | 1477 ft | 31 kts | 245° |
| 2026-05-07 21:59 | 48.36318 | 11.78743 | 1480 ft | 20 kts | 233° |
| 2026-05-07 21:59 | 48.36236 | 11.78577 | 1477 ft | 19 kts | 232° |
| 2026-05-07 21:59 | 48.36155 | 11.78528 | 1482 ft | 13 kts | 138° |
| 2026-05-07 22:00 | 48.36152 | 11.78674 | 1473 ft | 16 kts | 82° |
| 2026-05-07 22:00 | 48.36166 | 11.78862 | 1475 ft | 19 kts | 84° |
| 2026-05-07 22:00 | 48.36183 | 11.79078 | 1484 ft | 23 kts | 83° |
| 2026-05-07 22:00 | 48.36195 | 11.79252 | 1480 ft | 14 kts | 85° |
| 2026-05-07 22:01 | 48.36188 | 11.79308 | 1476 ft | 4 kts | 161° |
| 2026-05-07 22:01 | 48.36132 | 11.79310 | 1471 ft | 11 kts | 176° |
| 2026-05-07 22:01 | 48.36036 | 11.79326 | 1483 ft | 15 kts | 173° |
| 2026-05-07 22:01 | 48.35937 | 11.79346 | 1484 ft | 12 kts | 165° |
| 2026-05-07 22:02 | 48.35904 | 11.79398 | 1479 ft | 0 kts | 106° |
| 2026-05-07 22:02 | 48.35903 | 11.79402 | 1478 ft | 3 kts | 102° |
| 2026-05-07 22:02 | 48.35904 | 11.79443 | 1480 ft | 8 kts | 88° |
| 2026-05-07 22:02 | 48.35864 | 11.79517 | 1484 ft | 12 kts | 168° |
| 2026-05-07 22:03 | 48.35754 | 11.79538 | 1481 ft | 20 kts | 174° |
| 2026-05-07 22:03 | 48.35597 | 11.79565 | 1484 ft | 23 kts | 172° |
| 2026-05-07 22:03 | 48.35445 | 11.79591 | 1475 ft | 20 kts | 173° |
| 2026-05-07 22:03 | 48.35326 | 11.79612 | 1481 ft | 15 kts | 173° |
| 2026-05-07 22:04 | 48.35275 | 11.79627 | 1483 ft | 1 kts | 146° |
| 2026-05-07 22:04 | 48.35268 | 11.79657 | 1481 ft | 6 kts | 88° |
| 2026-05-07 22:04 | 48.35279 | 11.79723 | 1480 ft | 7 kts | 82° |
| 2026-05-07 22:04 | 48.35282 | 11.79768 | 1484 ft | 0 kts | 84° |